Time;durP1;ratioP1;P1;durP2;ratioP2;P2;SDS_P1;SDS_P2;PMS_P1;PMS_P2;Temp;Humidity;BMP_temperature;BMP_pressure;BME280_temperature;BME280_humidity;BME280_pressure;Samples;Min_cycle;Max_cycle;Signal;HPM_P1;HPM_P2
2023/12/06 00:01:08;;;;;;;66.03;42.28;;;;;;;;;;5012469;28;20053;-76
2023/12/06 00:03:34;;;;;;;67.68;41.72;;;;;;;;;;5011549;28;20049;-76
2023/12/06 00:06:00;;;;;;;63.83;40.10;;;;;;;;;;5012894;28;20046;-76
2023/12/06 00:08:26;;;;;;;66.75;41.97;;;;;;;;;;5011073;28;20480;-76
2023/12/06 00:10:52;;;;;;;68.90;41.97;;;;;;;;;;5012479;28;20399;-76
2023/12/06 00:13:18;;;;;;;69.55;43.53;;;;;;;;;;5012474;28;20069;-76
2023/12/06 00:15:44;;;;;;;66.20;40.85;;;;;;;;;;5008568;28;20049;-76
2023/12/06 00:18:10;;;;;;;66.40;40.22;;;;;;;;;;4993175;28;20129;-76
2023/12/06 00:20:36;;;;;;;70.40;42.85;;;;;;;;;;5016244;28;20049;-76
2023/12/06 00:23:02;;;;;;;66.78;42.03;;;;;;;;;;5015302;28;20100;-76
2023/12/06 00:25:28;;;;;;;63.90;40.95;;;;;;;;;;5013496;28;20121;-76
2023/12/06 00:27:55;;;;;;;65.93;41.05;;;;;;;;;;5015134;28;20042;-76
2023/12/06 00:30:21;;;;;;;61.47;41.28;;;;;;;;;;5013902;28;20053;-76
2023/12/06 00:32:47;;;;;;;65.25;41.88;;;;;;;;;;5007846;28;20049;-76
2023/12/06 00:35:13;;;;;;;64.25;42.30;;;;;;;;;;5012479;28;20554;-76
2023/12/06 00:37:39;;;;;;;66.38;42.60;;;;;;;;;;5012320;28;20050;-76
2023/12/06 00:40:06;;;;;;;70.05;42.47;;;;;;;;;;5012626;28;20056;-76
2023/12/06 00:42:32;;;;;;;66.97;41.17;;;;;;;;;;5014919;28;20046;-76
2023/12/06 00:44:58;;;;;;;68.97;41.95;;;;;;;;;;5008538;28;20053;-76
2023/12/06 00:47:24;;;;;;;69.25;43.35;;;;;;;;;;5008213;28;20054;-76
2023/12/06 00:49:50;;;;;;;68.43;43.08;;;;;;;;;;5009384;28;20052;-76
2023/12/06 00:52:16;;;;;;;64.72;41.38;;;;;;;;;;5009247;28;20042;-76
2023/12/06 00:54:42;;;;;;;68.10;41.53;;;;;;;;;;5015080;28;20045;-76
2023/12/06 00:57:08;;;;;;;65.85;39.92;;;;;;;;;;5012996;28;20077;-76
2023/12/06 00:59:34;;;;;;;67.47;41.10;;;;;;;;;;5015052;28;20049;-76
2023/12/06 01:02:00;;;;;;;68.80;41.97;;;;;;;;;;5000406;28;20161;-76
2023/12/06 01:04:26;;;;;;;66.75;42.65;;;;;;;;;;5005496;28;20054;-76
2023/12/06 01:06:52;;;;;;;65.70;41.55;;;;;;;;;;5012716;28;20053;-76
2023/12/06 01:09:18;;;;;;;65.75;42.42;;;;;;;;;;5015886;28;20038;-76
2023/12/06 01:11:44;;;;;;;69.53;44.42;;;;;;;;;;5011848;28;20073;-76
2023/12/06 01:14:11;;;;;;;73.10;43.75;;;;;;;;;;5015044;28;20034;-76
2023/12/06 01:16:37;;;;;;;67.65;43.10;;;;;;;;;;5010997;28;20077;-76
2023/12/06 01:19:03;;;;;;;68.53;42.90;;;;;;;;;;4996175;28;20058;-76
2023/12/06 01:21:29;;;;;;;71.35;43.35;;;;;;;;;;4999789;28;20124;-76
2023/12/06 01:23:55;;;;;;;71.35;43.50;;;;;;;;;;5013107;28;20042;-76
2023/12/06 01:26:21;;;;;;;72.03;43.58;;;;;;;;;;5006561;28;20115;-76
2023/12/06 01:28:47;;;;;;;68.85;42.55;;;;;;;;;;5014158;28;20081;-76
2023/12/06 01:31:13;;;;;;;71.07;42.70;;;;;;;;;;5013102;28;20053;-76
2023/12/06 01:33:39;;;;;;;72.18;44.72;;;;;;;;;;4997375;28;20065;-76
2023/12/06 01:36:05;;;;;;;74.68;43.45;;;;;;;;;;5015346;28;20046;-76
2023/12/06 01:38:31;;;;;;;69.75;42.53;;;;;;;;;;5015522;28;20050;-76
2023/12/06 01:40:57;;;;;;;71.53;42.72;;;;;;;;;;5014121;28;20045;-76
2023/12/06 01:43:23;;;;;;;75.65;43.95;;;;;;;;;;5014236;28;20048;-76
2023/12/06 01:45:49;;;;;;;69.65;41.40;;;;;;;;;;5012893;28;20050;-76
2023/12/06 01:48:17;;;;;;;71.75;44.47;;;;;;;;;;5010148;28;20049;-76
2023/12/06 01:50:43;;;;;;;70.75;42.60;;;;;;;;;;4997329;28;20126;-76
2023/12/06 01:53:10;;;;;;;67.07;39.00;;;;;;;;;;5010714;28;20050;-76
2023/12/06 01:55:36;;;;;;;68.38;41.45;;;;;;;;;;5013849;28;20038;-76
2023/12/06 01:58:03;;;;;;;67.38;42.30;;;;;;;;;;5010892;28;20042;-76
2023/12/06 02:00:29;;;;;;;70.63;40.70;;;;;;;;;;5009693;28;20054;-76
2023/12/06 02:02:55;;;;;;;69.30;41.55;;;;;;;;;;5014938;28;20052;-76
2023/12/06 02:05:21;;;;;;;72.10;43.03;;;;;;;;;;5013740;28;20101;-76
2023/12/06 02:07:48;;;;;;;73.72;42.05;;;;;;;;;;5010853;28;20045;-76
2023/12/06 02:10:15;;;;;;;71.80;42.17;;;;;;;;;;5007125;28;20064;-76
2023/12/06 02:12:41;;;;;;;71.38;41.30;;;;;;;;;;4995066;28;20133;-76
2023/12/06 02:15:07;;;;;;;79.43;43.03;;;;;;;;;;5011867;28;20049;-76
2023/12/06 02:17:34;;;;;;;77.38;42.75;;;;;;;;;;5013677;28;20065;-76
2023/12/06 02:20:01;;;;;;;77.53;43.17;;;;;;;;;;5006838;28;20042;-76
2023/12/06 02:22:27;;;;;;;77.07;42.85;;;;;;;;;;5001012;28;20124;-76
2023/12/06 02:24:56;;;;;;;76.97;42.50;;;;;;;;;;5013677;28;20112;-76
2023/12/06 02:27:22;;;;;;;80.70;44.20;;;;;;;;;;5003117;28;20101;-76
2023/12/06 02:29:48;;;;;;;81.70;42.33;;;;;;;;;;5005977;28;20057;-76
2023/12/06 02:32:14;;;;;;;71.15;42.20;;;;;;;;;;5003220;28;20494;-76
2023/12/06 02:34:41;;;;;;;84.22;42.83;;;;;;;;;;5007702;28;20037;-76
2023/12/06 02:37:08;;;;;;;75.43;41.40;;;;;;;;;;5009908;28;20042;-76
2023/12/06 02:39:40;;;;;;;78.43;43.10;;;;;;;;;;5011100;28;20078;-76
2023/12/06 02:42:06;;;;;;;79.13;43.30;;;;;;;;;;5010282;28;20446;-76
2023/12/06 02:44:33;;;;;;;83.07;42.85;;;;;;;;;;5009074;28;20061;-76
2023/12/06 02:46:59;;;;;;;76.15;42.00;;;;;;;;;;4995513;28;20108;-76
2023/12/06 02:49:25;;;;;;;76.45;42.25;;;;;;;;;;5012246;28;20040;-76
2023/12/06 02:51:51;;;;;;;84.72;42.55;;;;;;;;;;5010489;28;20041;-76
2023/12/06 02:54:17;;;;;;;85.30;43.33;;;;;;;;;;5007228;28;20042;-76
2023/12/06 02:56:43;;;;;;;84.20;43.67;;;;;;;;;;4995354;28;20488;-76
2023/12/06 02:59:09;;;;;;;81.35;42.60;;;;;;;;;;5002854;28;20492;-76
2023/12/06 03:01:35;;;;;;;83.10;42.25;;;;;;;;;;5012239;28;20526;-76
2023/12/06 03:04:02;;;;;;;81.75;42.15;;;;;;;;;;5010881;28;20061;-76
2023/12/06 03:06:28;;;;;;;86.28;42.85;;;;;;;;;;5012250;28;20054;-77
2023/12/06 03:08:54;;;;;;;82.90;41.67;;;;;;;;;;5013158;28;20050;-77
2023/12/06 03:11:20;;;;;;;82.95;43.13;;;;;;;;;;5013565;28;20037;-77
2023/12/06 03:13:47;;;;;;;97.90;45.85;;;;;;;;;;5013231;28;20054;-77
2023/12/06 03:16:13;;;;;;;88.25;43.60;;;;;;;;;;5009571;28;20068;-77
2023/12/06 03:18:39;;;;;;;93.50;44.78;;;;;;;;;;4993854;28;20125;-77
2023/12/06 03:21:05;;;;;;;100.93;44.42;;;;;;;;;;5001848;28;20050;-74
2023/12/06 03:23:31;;;;;;;94.55;42.83;;;;;;;;;;5011369;28;20057;-74
2023/12/06 03:25:57;;;;;;;96.05;43.70;;;;;;;;;;5012942;28;20042;-75
2023/12/06 03:28:23;;;;;;;87.88;42.35;;;;;;;;;;5013249;28;20057;-75
2023/12/06 03:30:49;;;;;;;80.88;41.58;;;;;;;;;;5012040;28;20046;-75
2023/12/06 03:33:15;;;;;;;83.82;41.90;;;;;;;;;;5013384;28;20172;-75
2023/12/06 03:35:41;;;;;;;102.43;43.38;;;;;;;;;;5013442;28;20077;-75
2023/12/06 03:38:07;;;;;;;94.95;43.22;;;;;;;;;;5012807;28;20057;-75
2023/12/06 03:40:33;;;;;;;77.97;39.83;;;;;;;;;;5013345;28;20084;-75
2023/12/06 03:42:59;;;;;;;88.63;42.28;;;;;;;;;;5013033;28;20415;-75
2023/12/06 03:45:25;;;;;;;89.00;42.20;;;;;;;;;;5012752;28;20420;-75
2023/12/06 03:47:52;;;;;;;88.57;42.65;;;;;;;;;;5012705;28;20415;-75
2023/12/06 03:50:18;;;;;;;90.30;42.08;;;;;;;;;;5006198;28;20127;-75
2023/12/06 03:52:44;;;;;;;87.28;42.10;;;;;;;;;;5000641;28;20049;-75
2023/12/06 03:55:11;;;;;;;90.18;42.67;;;;;;;;;;5010721;28;20108;-75
2023/12/06 03:57:37;;;;;;;89.80;42.58;;;;;;;;;;5011614;28;20133;-75
2023/12/06 04:00:04;;;;;;;86.85;41.60;;;;;;;;;;5010419;28;20072;-75
2023/12/06 04:02:30;;;;;;;91.47;42.22;;;;;;;;;;5005449;28;20048;-75
2023/12/06 04:04:56;;;;;;;86.68;41.00;;;;;;;;;;5011442;28;20566;-75
2023/12/06 04:07:22;;;;;;;87.15;42.20;;;;;;;;;;5011975;28;20495;-74
2023/12/06 04:09:48;;;;;;;93.57;42.72;;;;;;;;;;5010765;28;20412;-75
2023/12/06 04:12:14;;;;;;;94.07;44.05;;;;;;;;;;5012379;28;20041;-75
2023/12/06 04:14:41;;;;;;;85.55;40.50;;;;;;;;;;5011846;28;20053;-74
2023/12/06 04:17:07;;;;;;;79.57;39.80;;;;;;;;;;5008339;28;20042;-75
2023/12/06 04:19:33;;;;;;;89.97;41.15;;;;;;;;;;5004747;28;20057;-75
2023/12/06 04:21:59;;;;;;;85.03;39.80;;;;;;;;;;4998620;28;20120;-75
2023/12/06 04:24:25;;;;;;;93.18;41.90;;;;;;;;;;5011930;28;20132;-75
2023/12/06 04:26:51;;;;;;;84.45;39.45;;;;;;;;;;5008709;28;20050;-75
2023/12/06 04:29:17;;;;;;;78.88;38.80;;;;;;;;;;5008667;28;20408;-75
2023/12/06 04:31:43;;;;;;;77.20;36.90;;;;;;;;;;5010813;28;20411;-75
2023/12/06 04:34:10;;;;;;;78.38;37.17;;;;;;;;;;5002787;28;20562;-75
2023/12/06 04:36:36;;;;;;;72.65;36.17;;;;;;;;;;5010528;28;20100;-75
2023/12/06 04:39:02;;;;;;;72.95;36.80;;;;;;;;;;5010984;28;20053;-75
2023/12/06 04:41:28;;;;;;;73.28;36.40;;;;;;;;;;5006004;28;20046;-75
2023/12/06 04:43:54;;;;;;;62.85;33.80;;;;;;;;;;5012760;28;20396;-75
2023/12/06 04:46:20;;;;;;;76.85;35.38;;;;;;;;;;4998564;28;20504;-75
2023/12/06 04:48:47;;;;;;;60.40;33.17;;;;;;;;;;5010056;28;20103;-75
2023/12/06 04:51:13;;;;;;;62.75;31.88;;;;;;;;;;4993046;28;20121;-74
2023/12/06 04:53:39;;;;;;;68.25;34.05;;;;;;;;;;4997326;28;20042;-75
2023/12/06 04:56:05;;;;;;;62.55;32.83;;;;;;;;;;5002136;28;20046;-75
2023/12/06 04:58:31;;;;;;;58.80;31.92;;;;;;;;;;5006068;28;20046;-75
2023/12/06 05:00:57;;;;;;;60.45;32.25;;;;;;;;;;5010418;28;20124;-75
2023/12/06 05:03:23;;;;;;;57.58;32.17;;;;;;;;;;5009661;28;20540;-75
2023/12/06 05:05:49;;;;;;;55.25;29.13;;;;;;;;;;5010751;28;20057;-75
2023/12/06 05:08:15;;;;;;;52.28;29.30;;;;;;;;;;5014267;28;20380;-75
2023/12/06 05:10:41;;;;;;;49.58;28.90;;;;;;;;;;5015577;28;20046;-75
2023/12/06 05:13:08;;;;;;;53.92;28.73;;;;;;;;;;5015005;28;20096;-75
2023/12/06 05:15:34;;;;;;;51.65;28.92;;;;;;;;;;4998800;28;20126;-75
2023/12/06 05:18:02;;;;;;;54.83;28.35;;;;;;;;;;4997126;28;20116;-75
2023/12/06 05:20:28;;;;;;;49.25;28.35;;;;;;;;;;5015263;28;20125;-75
2023/12/06 05:22:54;;;;;;;46.80;27.05;;;;;;;;;;5015789;28;20096;-75
2023/12/06 05:25:20;;;;;;;48.80;26.98;;;;;;;;;;5013794;28;20045;-74
2023/12/06 05:27:46;;;;;;;44.28;25.98;;;;;;;;;;4995198;28;20056;-75
2023/12/06 05:30:12;;;;;;;45.30;26.00;;;;;;;;;;5011101;28;20046;-74
2023/12/06 05:32:38;;;;;;;45.47;26.52;;;;;;;;;;5003591;28;20125;-74
2023/12/06 05:35:05;;;;;;;47.85;28.27;;;;;;;;;;5002373;28;20043;-74
2023/12/06 05:37:31;;;;;;;44.58;26.08;;;;;;;;;;5000940;28;20487;-74
2023/12/06 05:39:58;;;;;;;53.30;28.80;;;;;;;;;;4999360;28;20423;-75
2023/12/06 05:42:24;;;;;;;50.42;28.95;;;;;;;;;;5005894;28;20128;-75
2023/12/06 05:44:50;;;;;;;46.83;27.50;;;;;;;;;;5015325;28;20053;-75
2023/12/06 05:47:16;;;;;;;50.90;28.73;;;;;;;;;;5014777;28;20091;-75
2023/12/06 05:49:42;;;;;;;52.50;30.13;;;;;;;;;;5016021;28;20049;-74
2023/12/06 05:52:09;;;;;;;48.97;30.02;;;;;;;;;;5015216;28;20450;-75
2023/12/06 05:54:35;;;;;;;46.85;29.73;;;;;;;;;;5012491;28;20049;-74
2023/12/06 05:57:01;;;;;;;43.65;27.70;;;;;;;;;;5005777;28;20050;-75
2023/12/06 05:59:27;;;;;;;46.13;27.65;;;;;;;;;;4998393;28;20053;-74
2023/12/06 06:01:53;;;;;;;45.38;28.15;;;;;;;;;;5007970;28;20082;-74
2023/12/06 06:04:19;;;;;;;44.13;27.13;;;;;;;;;;4998569;28;20053;-74
2023/12/06 06:06:45;;;;;;;44.20;26.83;;;;;;;;;;5006623;28;20042;-74
2023/12/06 06:09:11;;;;;;;43.50;27.27;;;;;;;;;;4991844;28;20042;-75
2023/12/06 06:11:37;;;;;;;44.67;26.85;;;;;;;;;;5014751;28;20522;-75
2023/12/06 06:14:03;;;;;;;47.15;27.73;;;;;;;;;;5014208;28;20399;-75
2023/12/06 06:16:29;;;;;;;45.63;26.63;;;;;;;;;;5005073;28;20104;-75
2023/12/06 06:18:55;;;;;;;45.25;26.75;;;;;;;;;;5010826;28;20058;-75
2023/12/06 06:21:22;;;;;;;45.38;26.73;;;;;;;;;;5013612;28;20545;-75
2023/12/06 06:23:48;;;;;;;50.15;27.50;;;;;;;;;;5015183;28;20492;-74
2023/12/06 06:26:14;;;;;;;48.58;27.30;;;;;;;;;;4997953;28;20073;-75
2023/12/06 06:28:40;;;;;;;51.40;28.35;;;;;;;;;;5004375;28;20133;-75
2023/12/06 06:31:06;;;;;;;46.95;28.27;;;;;;;;;;5006429;28;20108;-75
2023/12/06 06:33:32;;;;;;;49.35;28.00;;;;;;;;;;4995294;28;20057;-75
2023/12/06 06:35:58;;;;;;;50.63;30.25;;;;;;;;;;5003541;28;20041;-74
2023/12/06 06:38:24;;;;;;;48.47;29.23;;;;;;;;;;5008366;28;20396;-75
2023/12/06 06:40:50;;;;;;;45.90;29.50;;;;;;;;;;5006063;28;20058;-75
2023/12/06 06:43:17;;;;;;;44.42;28.23;;;;;;;;;;5012567;28;20045;-74
2023/12/06 06:45:43;;;;;;;46.40;28.38;;;;;;;;;;5004245;28;20534;-75
2023/12/06 06:48:10;;;;;;;43.97;28.60;;;;;;;;;;5011159;28;20054;-75
2023/12/06 06:50:36;;;;;;;51.00;28.55;;;;;;;;;;5013760;28;20395;-75
2023/12/06 06:53:03;;;;;;;42.70;27.92;;;;;;;;;;5008363;28;20049;-75
2023/12/06 06:55:29;;;;;;;44.13;27.65;;;;;;;;;;5004380;28;20062;-75
2023/12/06 06:57:56;;;;;;;45.65;26.83;;;;;;;;;;5004344;28;20053;-74
2023/12/06 07:00:23;;;;;;;44.33;27.73;;;;;;;;;;5003895;28;20034;-75
2023/12/06 07:02:49;;;;;;;47.53;29.40;;;;;;;;;;5000730;28;20046;-74
2023/12/06 07:05:15;;;;;;;43.70;27.67;;;;;;;;;;4997621;28;20073;-74
2023/12/06 07:07:41;;;;;;;46.67;28.05;;;;;;;;;;5010544;28;20046;-75
2023/12/06 07:10:09;;;;;;;40.88;26.73;;;;;;;;;;5006321;28;20129;-75
2023/12/06 07:12:36;;;;;;;43.75;27.83;;;;;;;;;;5013041;28;20049;-75
2023/12/06 07:15:02;;;;;;;39.10;26.05;;;;;;;;;;5013701;28;20049;-75
2023/12/06 07:17:29;;;;;;;40.25;26.15;;;;;;;;;;5013733;28;20074;-75
2023/12/06 07:19:56;;;;;;;45.58;28.30;;;;;;;;;;5013687;28;20115;-75
2023/12/06 07:22:22;;;;;;;46.10;29.70;;;;;;;;;;5013417;28;20487;-76
2023/12/06 07:24:48;;;;;;;49.75;29.85;;;;;;;;;;5012328;28;20049;-75
2023/12/06 07:27:14;;;;;;;44.30;27.67;;;;;;;;;;5012013;28;20050;-75
2023/12/06 07:29:42;;;;;;;53.92;28.92;;;;;;;;;;5013422;28;20058;-76
2023/12/06 07:32:09;;;;;;;39.88;27.10;;;;;;;;;;5013147;28;20065;-75
2023/12/06 07:34:35;;;;;;;44.70;27.92;;;;;;;;;;5013331;28;20042;-76
2023/12/06 07:37:01;;;;;;;43.08;28.40;;;;;;;;;;5013215;28;20521;-76
2023/12/06 07:39:27;;;;;;;45.35;28.40;;;;;;;;;;5013273;28;20049;-76
2023/12/06 07:41:53;;;;;;;47.17;28.02;;;;;;;;;;5007467;28;20564;-76
2023/12/06 07:44:20;;;;;;;46.15;28.38;;;;;;;;;;5009827;28;20053;-74
2023/12/06 07:46:48;;;;;;;41.78;26.63;;;;;;;;;;5010155;28;20049;-74
2023/12/06 07:49:14;;;;;;;46.38;28.38;;;;;;;;;;5012738;28;20042;-75
2023/12/06 07:51:40;;;;;;;41.05;24.55;;;;;;;;;;5004178;28;20507;-72
2023/12/06 07:54:06;;;;;;;41.28;27.02;;;;;;;;;;4999372;28;20491;-72
2023/12/06 07:56:33;;;;;;;47.72;27.80;;;;;;;;;;5001542;28;20487;-72
2023/12/06 07:59:00;;;;;;;43.80;28.08;;;;;;;;;;5011614;28;20046;-72
2023/12/06 08:01:31;;;;;;;43.05;27.40;;;;;;;;;;5011681;28;20488;-73
2023/12/06 08:03:57;;;;;;;40.42;26.65;;;;;;;;;;5013527;28;20038;-72
2023/12/06 08:06:23;;;;;;;43.25;26.60;;;;;;;;;;5006986;28;20049;-73
2023/12/06 08:08:53;;;;;;;43.95;28.27;;;;;;;;;;5017167;28;20056;-72
2023/12/06 08:11:22;;;;;;;40.80;26.77;;;;;;;;;;5009235;28;20042;-72
2023/12/06 08:13:48;;;;;;;41.28;27.73;;;;;;;;;;4997771;28;20042;-72
2023/12/06 08:16:14;;;;;;;47.05;27.08;;;;;;;;;;4995575;28;20096;-73
2023/12/06 08:18:40;;;;;;;37.75;26.35;;;;;;;;;;5006641;28;20070;-73
2023/12/06 08:21:08;;;;;;;41.33;25.73;;;;;;;;;;4993762;28;20098;-73
2023/12/06 08:23:34;;;;;;;40.97;26.27;;;;;;;;;;5011656;28;20046;-73
2023/12/06 08:26:01;;;;;;;38.83;24.40;;;;;;;;;;5004125;28;20137;-73
2023/12/06 08:28:27;;;;;;;41.92;25.58;;;;;;;;;;5006887;28;20100;-72
2023/12/06 08:30:53;;;;;;;38.22;25.63;;;;;;;;;;4992050;28;20046;-73
2023/12/06 08:33:19;;;;;;;42.45;26.70;;;;;;;;;;4995547;28;20120;-72
2023/12/06 08:35:45;;;;;;;43.20;25.50;;;;;;;;;;5010106;28;20042;-72
2023/12/06 08:38:14;;;;;;;38.53;24.63;;;;;;;;;;5010033;28;21176;-72
2023/12/06 08:40:40;;;;;;;34.40;24.17;;;;;;;;;;5013321;28;20417;-72
2023/12/06 08:43:06;;;;;;;40.35;26.65;;;;;;;;;;5014578;28;20505;-72
2023/12/06 08:45:33;;;;;;;38.92;24.88;;;;;;;;;;5012646;28;20049;-72
2023/12/06 08:47:59;;;;;;;41.65;26.23;;;;;;;;;;5011086;28;20044;-72
2023/12/06 08:50:25;;;;;;;35.78;24.88;;;;;;;;;;5010390;28;20056;-72
2023/12/06 08:52:52;;;;;;;38.78;25.58;;;;;;;;;;5012203;28;20045;-72
2023/12/06 08:55:18;;;;;;;38.33;24.95;;;;;;;;;;5011239;28;20066;-72
2023/12/06 08:57:44;;;;;;;33.30;24.70;;;;;;;;;;5012167;28;20065;-72
2023/12/06 09:00:12;;;;;;;35.00;24.15;;;;;;;;;;5015063;28;20415;-72
2023/12/06 09:02:39;;;;;;;35.97;25.08;;;;;;;;;;5014396;28;20074;-73
2023/12/06 09:05:05;;;;;;;37.33;25.17;;;;;;;;;;5014674;28;20057;-73
2023/12/06 09:07:31;;;;;;;34.75;24.67;;;;;;;;;;5000331;28;20105;-72
2023/12/06 09:09:58;;;;;;;32.83;25.05;;;;;;;;;;5015113;28;20398;-72
2023/12/06 09:12:24;;;;;;;34.95;25.08;;;;;;;;;;5010296;28;20444;-72
2023/12/06 09:14:50;;;;;;;36.00;24.30;;;;;;;;;;4994506;28;20446;-72
2023/12/06 09:17:16;;;;;;;34.97;23.70;;;;;;;;;;5010144;28;20070;-73
2023/12/06 09:19:42;;;;;;;36.28;23.83;;;;;;;;;;5009016;28;20057;-73
2023/12/06 09:22:08;;;;;;;32.90;23.92;;;;;;;;;;5011546;28;20049;-72
2023/12/06 09:24:34;;;;;;;34.53;23.48;;;;;;;;;;5012481;28;20050;-73
2023/12/06 09:27:00;;;;;;;32.80;24.25;;;;;;;;;;5013690;28;20054;-72
2023/12/06 09:29:26;;;;;;;34.30;25.02;;;;;;;;;;5010509;28;20050;-73
2023/12/06 09:31:52;;;;;;;34.53;24.48;;;;;;;;;;5011270;28;20054;-73
2023/12/06 09:34:18;;;;;;;33.47;24.45;;;;;;;;;;4995183;28;20058;-73
2023/12/06 09:36:44;;;;;;;32.58;22.73;;;;;;;;;;4983460;28;20108;-73
2023/12/06 09:39:15;;;;;;;31.88;24.05;;;;;;;;;;5005110;28;20069;-73
2023/12/06 09:41:41;;;;;;;30.17;21.90;;;;;;;;;;5012535;28;20042;-72
2023/12/06 09:44:07;;;;;;;31.60;23.10;;;;;;;;;;5001492;28;20057;-72
2023/12/06 09:46:34;;;;;;;38.33;22.88;;;;;;;;;;5005908;28;20116;-72
2023/12/06 09:49:00;;;;;;;34.03;24.30;;;;;;;;;;5007223;28;20121;-72
2023/12/06 09:51:27;;;;;;;31.70;23.90;;;;;;;;;;5006861;28;20135;-72
2023/12/06 09:53:53;;;;;;;35.30;24.30;;;;;;;;;;5013929;28;20050;-72
2023/12/06 09:56:19;;;;;;;30.27;23.17;;;;;;;;;;5011132;28;20042;-72
2023/12/06 09:58:45;;;;;;;33.83;23.20;;;;;;;;;;4997034;28;20054;-73
2023/12/06 10:01:12;;;;;;;34.05;24.13;;;;;;;;;;5008038;28;20125;-72
2023/12/06 10:03:38;;;;;;;35.08;24.23;;;;;;;;;;5009002;28;20058;-73
2023/12/06 10:06:04;;;;;;;31.10;23.20;;;;;;;;;;5007998;28;20042;-73
2023/12/06 10:08:34;;;;;;;32.95;22.70;;;;;;;;;;4996200;28;20051;-73
2023/12/06 10:11:01;;;;;;;29.63;21.85;;;;;;;;;;5002916;28;20077;-73
2023/12/06 10:13:34;;;;;;;31.67;23.33;;;;;;;;;;5011785;28;20070;-73
2023/12/06 10:16:00;;;;;;;29.35;22.25;;;;;;;;;;5011563;28;20137;-74
2023/12/06 10:18:27;;;;;;;31.38;22.55;;;;;;;;;;5006629;28;20054;-72
2023/12/06 10:20:53;;;;;;;29.33;21.52;;;;;;;;;;5013579;28;20419;-72
2023/12/06 10:23:19;;;;;;;28.15;21.40;;;;;;;;;;5013663;28;20091;-72
2023/12/06 10:25:49;;;;;;;29.33;21.58;;;;;;;;;;5013601;28;20087;-74
2023/12/06 10:28:17;;;;;;;28.70;20.58;;;;;;;;;;5006396;28;20101;-73
2023/12/06 10:30:43;;;;;;;29.13;20.98;;;;;;;;;;5005654;28;20383;-72
2023/12/06 10:33:10;;;;;;;32.45;20.88;;;;;;;;;;5001073;28;20057;-73
2023/12/06 10:35:36;;;;;;;28.90;21.15;;;;;;;;;;5007170;28;20451;-73
2023/12/06 10:38:03;;;;;;;25.55;19.38;;;;;;;;;;5011327;28;20049;-73
2023/12/06 10:40:29;;;;;;;27.55;20.40;;;;;;;;;;5012124;28;20043;-73
2023/12/06 10:43:01;;;;;;;27.95;20.13;;;;;;;;;;5012843;28;20094;-73
2023/12/06 10:45:27;;;;;;;26.35;19.17;;;;;;;;;;5009331;28;20060;-73
2023/12/06 10:47:53;;;;;;;25.70;19.83;;;;;;;;;;5003531;28;20057;-73
2023/12/06 10:50:19;;;;;;;22.13;17.40;;;;;;;;;;5005935;28;20490;-73
2023/12/06 10:52:47;;;;;;;26.80;20.65;;;;;;;;;;5000664;28;20038;-73
2023/12/06 10:55:14;;;;;;;27.77;20.45;;;;;;;;;;5013193;28;20431;-73
2023/12/06 10:57:42;;;;;;;27.67;19.27;;;;;;;;;;5012582;28;20034;-73
2023/12/06 11:00:08;;;;;;;25.77;20.17;;;;;;;;;;5013021;28;20495;-73
2023/12/06 11:02:34;;;;;;;24.25;18.98;;;;;;;;;;5012572;28;20169;-73
2023/12/06 11:05:05;;;;;;;25.70;19.15;;;;;;;;;;5002901;28;20447;-73
2023/12/06 11:07:42;;;;;;;25.20;18.77;;;;;;;;;;5011499;28;20050;-73
2023/12/06 11:10:14;;;;;;;26.52;20.20;;;;;;;;;;5004909;28;20097;-73
2023/12/06 11:12:40;;;;;;;;;;;;;;;;;;5006898;28;20069;-73
2023/12/06 11:15:22;;;;;;;27.13;18.75;;;;;;;;;;5012442;28;20004;-73
2023/12/06 11:17:51;;;;;;;27.13;19.08;;;;;;;;;;5007738;28;20050;-73
2023/12/06 11:20:17;;;;;;;29.40;20.42;;;;;;;;;;5005960;28;20062;-73
2023/12/06 11:22:43;;;;;;;23.08;18.75;;;;;;;;;;5012082;28;20530;-73
2023/12/06 11:25:10;;;;;;;25.95;18.40;;;;;;;;;;5005754;28;20065;-73
2023/12/06 11:27:40;;;;;;;24.15;18.08;;;;;;;;;;5010312;28;20421;-73
2023/12/06 11:30:16;;;;;;;25.65;18.40;;;;;;;;;;5005790;28;20041;-73
2023/12/06 11:32:43;;;;;;;26.52;17.88;;;;;;;;;;5003235;28;20622;-73
2023/12/06 11:35:09;;;;;;;24.48;18.38;;;;;;;;;;5005249;28;20054;-73
2023/12/06 11:37:35;;;;;;;23.50;18.20;;;;;;;;;;5012531;28;20076;-73
2023/12/06 11:40:08;;;;;;;22.65;18.20;;;;;;;;;;5012600;28;20042;-73
2023/12/06 11:42:37;;;;;;;24.33;17.73;;;;;;;;;;5008925;28;20060;-73
2023/12/06 11:45:05;;;;;;;22.27;18.45;;;;;;;;;;5011972;28;20060;-73
2023/12/06 11:47:34;;;;;;;24.83;17.98;;;;;;;;;;4994342;28;20050;-73
2023/12/06 11:50:01;;;;;;;26.25;18.08;;;;;;;;;;5007465;28;20054;-73
2023/12/06 11:52:27;;;;;;;26.73;18.77;;;;;;;;;;4993327;28;20100;-73
2023/12/06 11:54:54;;;;;;;23.67;17.50;;;;;;;;;;4997008;28;20053;-73
2023/12/06 11:57:20;;;;;;;23.08;17.15;;;;;;;;;;5012334;28;20345;-73
2023/12/06 11:59:47;;;;;;;26.42;18.33;;;;;;;;;;5012313;28;20574;-73
2023/12/06 12:02:13;;;;;;;24.25;17.75;;;;;;;;;;5008883;28;20042;-73
2023/12/06 12:04:39;;;;;;;24.83;18.73;;;;;;;;;;5009524;28;20054;-73
2023/12/06 12:07:05;;;;;;;23.20;17.95;;;;;;;;;;5012012;28;20038;-73
2023/12/06 12:09:31;;;;;;;23.00;18.08;;;;;;;;;;5012441;28;20506;-73
2023/12/06 12:11:57;;;;;;;27.55;18.98;;;;;;;;;;5011625;28;20046;-73
2023/12/06 12:14:24;;;;;;;22.65;17.83;;;;;;;;;;5013768;28;20050;-73
2023/12/06 12:16:50;;;;;;;23.23;17.30;;;;;;;;;;5007947;28;20085;-73
2023/12/06 12:19:16;;;;;;;25.75;17.20;;;;;;;;;;4996915;28;20057;-73
2023/12/06 12:21:42;;;;;;;25.23;18.33;;;;;;;;;;5011093;28;20128;-73
2023/12/06 12:24:08;;;;;;;22.52;16.90;;;;;;;;;;5015216;28;20045;-73
2023/12/06 12:26:34;;;;;;;27.27;18.60;;;;;;;;;;5015323;28;20084;-73
2023/12/06 12:29:00;;;;;;;23.55;17.92;;;;;;;;;;5015700;28;20058;-73
2023/12/06 12:31:28;;;;;;;23.08;17.40;;;;;;;;;;5014484;28;20053;-73
2023/12/06 12:33:55;;;;;;;22.85;17.40;;;;;;;;;;5015202;28;20446;-73
2023/12/06 12:36:21;;;;;;;23.55;17.83;;;;;;;;;;5014705;28;20356;-73
2023/12/06 12:38:47;;;;;;;22.52;17.35;;;;;;;;;;5015800;28;20048;-74
2023/12/06 12:41:14;;;;;;;23.13;17.60;;;;;;;;;;5015380;28;20203;-74
2023/12/06 12:43:40;;;;;;;23.52;16.98;;;;;;;;;;4998361;28;20056;-74
2023/12/06 12:46:06;;;;;;;26.10;18.10;;;;;;;;;;5014912;28;20498;-74
2023/12/06 12:48:33;;;;;;;22.73;17.27;;;;;;;;;;5007926;28;20046;-73
2023/12/06 12:51:07;;;;;;;25.15;17.55;;;;;;;;;;5015511;28;20042;-74
2023/12/06 12:53:33;;;;;;;26.50;18.55;;;;;;;;;;5015375;28;20054;-74
2023/12/06 12:55:59;;;;;;;23.33;17.17;;;;;;;;;;5014928;28;20065;-73
2023/12/06 12:58:26;;;;;;;27.85;18.40;;;;;;;;;;5010325;28;20042;-74
2023/12/06 13:00:52;;;;;;;24.55;17.45;;;;;;;;;;5005586;28;20144;-74
2023/12/06 13:03:18;;;;;;;22.75;16.25;;;;;;;;;;5009545;28;20046;-74
2023/12/06 13:05:44;;;;;;;23.10;16.98;;;;;;;;;;4996966;28;20042;-73
2023/12/06 13:08:12;;;;;;;23.90;17.98;;;;;;;;;;5009221;28;20372;-73
2023/12/06 13:10:38;;;;;;;22.35;17.58;;;;;;;;;;5001344;28;20038;-74
2023/12/06 13:13:04;;;;;;;22.17;17.05;;;;;;;;;;4996868;28;20451;-74
2023/12/06 13:15:30;;;;;;;23.58;17.40;;;;;;;;;;4995906;28;20061;-74
2023/12/06 13:17:57;;;;;;;22.77;17.23;;;;;;;;;;5004741;28;20050;-74
2023/12/06 13:20:23;;;;;;;21.67;17.35;;;;;;;;;;4997683;28;20081;-74
2023/12/06 13:22:49;;;;;;;21.05;16.52;;;;;;;;;;4995645;28;20058;-74
2023/12/06 13:25:15;;;;;;;22.58;15.93;;;;;;;;;;4995676;28;20057;-73
2023/12/06 13:27:42;;;;;;;24.55;16.75;;;;;;;;;;5004087;28;20041;-74
2023/12/06 13:30:08;;;;;;;23.52;16.33;;;;;;;;;;5015189;28;20046;-74
2023/12/06 13:32:34;;;;;;;19.92;15.95;;;;;;;;;;5013188;28;20073;-74
2023/12/06 13:35:00;;;;;;;22.60;16.38;;;;;;;;;;5003636;28;20073;-74
2023/12/06 13:37:26;;;;;;;20.73;16.23;;;;;;;;;;5012409;28;20042;-74
2023/12/06 13:39:52;;;;;;;22.17;15.93;;;;;;;;;;5004096;28;20050;-74
2023/12/06 13:42:18;;;;;;;21.73;15.70;;;;;;;;;;4995101;28;20480;-74
2023/12/06 13:44:44;;;;;;;23.67;17.10;;;;;;;;;;4995332;28;20050;-74
2023/12/06 13:47:11;;;;;;;22.58;16.00;;;;;;;;;;4999120;28;20038;-74
2023/12/06 13:49:37;;;;;;;24.55;15.63;;;;;;;;;;5007770;28;20122;-74
2023/12/06 13:52:03;;;;;;;23.52;16.42;;;;;;;;;;5002933;28;20052;-74
2023/12/06 13:54:29;;;;;;;22.98;17.05;;;;;;;;;;5005738;28;20053;-74
2023/12/06 13:56:55;;;;;;;22.45;16.42;;;;;;;;;;5002080;28;20129;-74
2023/12/06 13:59:21;;;;;;;23.05;17.17;;;;;;;;;;5009013;28;20050;-74
2023/12/06 14:01:49;;;;;;;22.05;17.10;;;;;;;;;;5011450;28;20062;-74
2023/12/06 14:04:15;;;;;;;21.02;14.63;;;;;;;;;;5014300;28;20104;-74
2023/12/06 14:06:41;;;;;;;25.15;17.02;;;;;;;;;;5013847;28;20050;-74
2023/12/06 14:09:08;;;;;;;22.70;17.13;;;;;;;;;;5013428;28;20049;-74
2023/12/06 14:11:35;;;;;;;24.40;17.67;;;;;;;;;;5001664;28;20049;-74